Time;durP1;ratioP1;P1;durP2;ratioP2;P2;SDS_P1;SDS_P2;PMS_P1;PMS_P2;Temp;Humidity;BMP_temperature;BMP_pressure;BME280_temperature;BME280_humidity;BME280_pressure;Samples;Min_cycle;Max_cycle;Signal;HPM_P1;HPM_P2
2023/03/31 00:00:52;;;;;;;23.38;4.78;;;;;;;9.02;100.00;100213.72;5077395;28;20097;-78
2023/03/31 00:03:23;;;;;;;33.78;5.40;;;;;;;9.00;100.00;100214.56;5044948;28;20499;-78
2023/03/31 00:05:58;;;;;;;36.70;6.43;;;;;;;8.97;100.00;100215.47;5052337;28;20048;-78
2023/03/31 00:08:28;;;;;;;26.08;5.38;;;;;;;8.93;100.00;100222.47;5039636;28;20042;-79
2023/03/31 00:11:01;;;;;;;30.45;6.10;;;;;;;8.90;100.00;100219.88;5063784;28;20041;-77
2023/03/31 00:13:30;;;;;;;30.38;5.60;;;;;;;8.89;100.00;100209.34;5057129;28;20052;-77
2023/03/31 00:16:08;;;;;;;22.80;6.15;;;;;;;8.86;100.00;100206.72;5055656;28;20040;-77
2023/03/31 00:18:36;;;;;;;29.48;4.68;;;;;;;8.84;100.00;100209.34;5057751;28;20036;-76
2023/03/31 00:21:23;;;;;;;41.17;5.85;;;;;;;8.81;100.00;100206.72;5049888;28;20507;-77
2023/03/31 00:24:03;;;;;;;23.48;5.75;;;;;;;8.79;100.00;100205.84;5049383;28;20434;-78
2023/03/31 00:26:31;;;;;;;29.65;5.68;;;;;;;8.77;100.00;100200.59;5025838;28;20045;-78
2023/03/31 00:28:59;;;;;;;36.15;5.63;;;;;;;8.76;100.00;100206.72;5057850;28;20071;-77
2023/03/31 00:31:28;;;;;;;31.33;5.80;;;;;;;8.74;100.00;100199.72;5058024;28;20048;-76
2023/03/31 00:33:56;;;;;;;31.92;4.82;;;;;;;8.73;100.00;100190.06;5059411;28;20048;-77
2023/03/31 00:36:26;;;;;;;28.38;5.28;;;;;;;8.71;100.00;100181.31;5065721;28;20499;-76
2023/03/31 00:38:57;;;;;;;37.65;6.82;;;;;;;8.69;100.00;100177.81;5067753;28;20499;-76
2023/03/31 00:41:27;;;;;;;28.35;4.93;;;;;;;8.68;100.00;100174.31;5013098;28;20075;-77
2023/03/31 00:44:23;;;;;;;21.10;5.22;;;;;;;8.66;100.00;100156.78;5039702;28;20060;-76
2023/03/31 00:47:01;;;;;;;27.40;4.75;;;;;;;8.64;100.00;100159.44;5049109;28;20592;-77
2023/03/31 00:49:32;;;;;;;31.05;5.70;;;;;;;8.61;100.00;100148.91;5035076;28;20045;-76
2023/03/31 00:52:23;;;;;;;34.05;5.82;;;;;;;8.59;100.00;100140.16;5052283;28;20414;-76
2023/03/31 00:55:01;;;;;;;26.27;4.55;;;;;;;8.56;100.00;100148.94;5049533;28;20051;-78
2023/03/31 00:57:32;;;;;;;31.45;6.13;;;;;;;8.54;100.00;100145.44;5028619;28;20040;-77
2023/03/31 01:00:06;;;;;;;;;;;;;;;8.52;100.00;100147.16;5068970;28;20049;-77
2023/03/31 01:02:33;;;;;;;34.70;6.55;;;;;;;8.49;100.00;100133.19;5062918;28;19927;-77
2023/03/31 01:05:01;;;;;;;27.25;5.47;;;;;;;8.47;100.00;100134.91;5006628;28;20499;-77
2023/03/31 01:07:41;;;;;;;36.10;5.93;;;;;;;8.45;100.00;100126.16;5048528;28;20045;-77
2023/03/31 01:10:10;;;;;;;38.13;5.32;;;;;;;8.45;100.00;100131.41;5034711;28;20503;-78
2023/03/31 01:12:41;;;;;;;24.70;5.32;;;;;;;8.41;100.00;100125.22;5011084;28;20045;-78
2023/03/31 01:15:09;;;;;;;27.17;5.07;;;;;;;8.41;100.00;100117.38;5047893;28;20057;-78
2023/03/31 01:17:39;;;;;;;32.22;5.68;;;;;;;8.40;100.00;100115.63;5060901;28;20056;-77
2023/03/31 01:20:41;;;;;;;29.58;6.07;;;;;;;8.39;100.00;100108.59;5053088;28;20060;-77
2023/03/31 01:23:32;;;;;;;27.08;4.35;;;;;;;8.36;100.00;100106.00;5068087;28;20044;-77
2023/03/31 01:26:54;;;;;;;28.95;5.15;;;;;;;8.34;100.00;100105.13;5062996;28;20503;-78
2023/03/31 01:30:09;;;;;;;24.45;4.82;;;;;;;8.31;100.00;100090.22;4994008;28;20052;-77
2023/03/31 01:33:21;;;;;;;26.52;4.78;;;;;;;8.28;100.00;100085.00;5026737;28;20492;-78
2023/03/31 01:36:17;;;;;;;33.83;6.15;;;;;;;8.27;100.00;100083.25;5042291;28;20057;-77
2023/03/31 01:38:47;;;;;;;26.60;5.07;;;;;;;8.25;100.00;100082.38;5064614;28;20045;-77
2023/03/31 01:41:17;;;;;;;34.58;6.88;;;;;;;8.24;100.00;100079.72;5047664;28;20099;-78
2023/03/31 01:44:00;;;;;;;34.40;6.22;;;;;;;8.23;100.00;100078.88;5021593;28;20044;-77
2023/03/31 01:46:31;;;;;;;31.30;5.57;;;;;;;8.24;100.00;100082.34;5058455;28;20049;-77
2023/03/31 01:49:16;;;;;;;39.92;6.78;;;;;;;8.22;100.00;100077.09;5058850;28;20040;-78
2023/03/31 01:51:50;;;;;;;27.40;5.22;;;;;;;8.22;100.00;100071.84;5044322;28;20071;-78
2023/03/31 01:54:38;;;;;;;32.25;5.07;;;;;;;8.23;100.00;100070.13;5062295;28;20061;-78
2023/03/31 01:57:36;;;;;;;33.63;5.60;;;;;;;8.23;100.00;100062.25;5063898;28;20048;-77
2023/03/31 02:00:08;;;;;;;26.30;6.60;;;;;;;8.23;100.00;100057.00;5047561;28;20040;-77
2023/03/31 02:03:03;;;;;;;38.20;7.25;;;;;;;8.22;100.00;100057.88;5046507;28;20053;-77
2023/03/31 02:05:59;;;;;;;29.77;6.35;;;;;;;8.20;100.00;100043.00;5054757;28;20059;-77
2023/03/31 02:08:38;;;;;;;31.60;5.40;;;;;;;8.20;100.00;100048.25;5065304;28;20052;-77
2023/03/31 02:11:06;;;;;;;22.50;5.45;;;;;;;8.21;100.00;100038.63;5068658;28;20060;-78
2023/03/31 02:13:40;;;;;;;21.95;6.18;;;;;;;8.21;100.00;100036.00;5018851;28;20242;-78
2023/03/31 02:16:16;;;;;;;23.67;4.68;;;;;;;8.22;100.00;100034.25;5064508;28;20041;-78
2023/03/31 02:18:47;;;;;;;29.50;5.60;;;;;;;8.22;100.00;100026.38;5069473;28;20040;-78
2023/03/31 02:21:15;;;;;;;27.75;5.47;;;;;;;8.22;100.00;100029.00;5045590;28;20135;-78
2023/03/31 02:23:44;;;;;;;27.42;4.53;;;;;;;8.21;100.00;100033.38;5045521;28;20491;-78
2023/03/31 02:26:26;;;;;;;26.83;5.00;;;;;;;8.20;100.00;100032.50;5059055;28;20063;-77
2023/03/31 02:28:56;;;;;;;25.38;4.45;;;;;;;8.20;100.00;100018.50;5040420;28;20074;-77
2023/03/31 02:31:41;;;;;;;24.98;4.95;;;;;;;8.20;100.00;100021.13;5046759;28;20064;-76
2023/03/31 02:34:09;;;;;;;24.80;5.35;;;;;;;8.20;100.00;100021.13;5071337;28;20050;-78
2023/03/31 02:36:37;;;;;;;27.25;5.43;;;;;;;8.19;100.00;100012.38;5032059;28;20049;-78
2023/03/31 02:39:10;;;;;;;26.95;4.93;;;;;;;8.20;100.00;100005.38;5054398;28;20053;-78
2023/03/31 02:41:38;;;;;;;28.63;4.88;;;;;;;8.20;100.00;100003.63;5051941;28;20045;-77
2023/03/31 02:44:05;;;;;;;26.85;4.50;;;;;;;8.22;100.00;100000.13;5022879;28;20044;-77
2023/03/31 02:46:34;;;;;;;25.02;4.38;;;;;;;8.24;100.00;99990.50;5050909;28;20053;-77
2023/03/31 02:49:05;;;;;;;23.20;4.70;;;;;;;8.25;100.00;100000.13;5052755;28;20055;-78
2023/03/31 02:52:05;;;;;;;26.35;4.60;;;;;;;8.25;100.00;99990.50;5055918;28;20790;-76
2023/03/31 02:54:51;;;;;;;29.67;4.30;;;;;;;8.27;100.00;99985.25;5039323;28;20052;-77
2023/03/31 02:57:33;;;;;;;28.02;4.60;;;;;;;8.29;100.00;99975.63;5064962;28;20044;-78
2023/03/31 03:00:18;;;;;;;27.50;4.88;;;;;;;8.28;100.00;99976.50;5017407;28;20044;-78
2023/03/31 03:02:55;;;;;;;27.48;4.50;;;;;;;8.29;100.00;99968.63;5048463;28;20045;-77
2023/03/31 03:05:22;;;;;;;25.20;4.88;;;;;;;8.30;100.00;99974.72;5049858;28;20067;-77
2023/03/31 03:08:25;;;;;;;19.70;4.15;;;;;;;8.31;100.00;99960.75;5046115;28;20057;-78
2023/03/31 03:11:16;;;;;;;26.55;4.65;;;;;;;8.32;100.00;99946.75;5038931;28;20059;-78
2023/03/31 03:14:30;;;;;;;29.88;4.03;;;;;;;8.31;100.00;99945.00;5063980;28;20041;-78
2023/03/31 03:17:07;;;;;;;24.15;4.75;;;;;;;8.32;100.00;99933.63;5006619;28;20053;-77
2023/03/31 03:19:34;;;;;;;26.58;4.55;;;;;;;8.33;100.00;99938.00;5067733;28;20041;-77
2023/03/31 03:22:02;;;;;;;28.83;4.88;;;;;;;8.33;100.00;99932.75;5045798;28;20068;-77
2023/03/31 03:24:33;;;;;;;21.92;4.93;;;;;;;8.33;100.00;99930.97;5050763;28;20051;-78
2023/03/31 03:27:00;;;;;;;;;;;;;;;8.32;100.00;99929.25;5036763;28;20087;-77
2023/03/31 03:29:27;;;;;;;21.25;4.10;;;;;;;8.32;100.00;99915.25;5039138;28;19936;-78
2023/03/31 03:31:54;;;;;;;18.50;3.83;;;;;;;8.33;100.00;99911.75;5066795;28;20052;-77
2023/03/31 03:34:24;;;;;;;17.98;4.30;;;;;;;8.32;100.00;99903.00;5062897;28;20064;-78
2023/03/31 03:36:51;;;;;;;24.15;4.07;;;;;;;8.34;100.00;99898.63;5052594;28;20056;-77
2023/03/31 03:39:19;;;;;;;27.42;4.05;;;;;;;8.34;100.00;99897.75;4995411;28;20052;-77
2023/03/31 03:41:46;;;;;;;26.25;5.05;;;;;;;8.35;100.00;99888.97;5052879;28;20119;-77
2023/03/31 03:44:14;;;;;;;17.90;4.38;;;;;;;8.36;100.00;99878.47;5035253;28;20045;-77
2023/03/31 03:46:41;;;;;;;17.15;4.07;;;;;;;8.39;100.00;99874.97;5027808;28;20084;-77
2023/03/31 03:49:08;;;;;;;19.77;4.65;;;;;;;8.40;100.00;99874.97;5067066;28;20097;-77
2023/03/31 03:51:36;;;;;;;21.00;4.93;;;;;;;8.42;100.00;99868.88;5065719;28;20044;-77
2023/03/31 03:54:03;;;;;;;18.63;4.07;;;;;;;8.42;100.00;99858.38;5070164;28;20111;-77
2023/03/31 03:56:30;;;;;;;24.08;4.60;;;;;;;8.44;100.00;99860.09;5037334;28;20059;-77
2023/03/31 03:58:58;;;;;;;18.55;4.18;;;;;;;8.44;100.00;99851.38;5086578;28;20037;-77
2023/03/31 04:01:25;;;;;;;17.63;3.40;;;;;;;8.43;100.00;99849.59;4989897;28;20041;-77
2023/03/31 04:03:53;;;;;;;19.05;3.63;;;;;;;8.44;100.00;99840.88;5070349;28;20052;-77
2023/03/31 04:06:20;;;;;;;19.70;4.32;;;;;;;8.44;100.00;99841.72;5025684;28;20102;-77
2023/03/31 04:08:48;;;;;;;18.95;4.55;;;;;;;8.42;100.00;99827.75;5062321;28;20045;-77
2023/03/31 04:11:18;;;;;;;13.23;3.80;;;;;;;8.42;100.00;99827.75;5054002;28;20060;-78
2023/03/31 04:13:46;;;;;;;14.57;3.88;;;;;;;8.39;100.00;99820.72;5066745;28;20044;-78
2023/03/31 04:16:13;;;;;;;22.20;4.93;;;;;;;8.38;100.00;99818.09;5013190;28;20052;-78
2023/03/31 04:18:41;;;;;;;23.88;4.78;;;;;;;8.37;100.00;99811.09;5038627;28;20809;-77
2023/03/31 04:21:21;;;;;;;18.92;4.47;;;;;;;8.37;100.00;99814.63;5073278;28;20053;-78
2023/03/31 04:23:57;;;;;;;15.25;4.15;;;;;;;8.36;100.00;99802.34;5050650;28;20048;-78
2023/03/31 04:26:37;;;;;;;14.60;4.07;;;;;;;8.37;100.00;99804.13;5055605;28;20040;-78
2023/03/31 04:29:06;;;;;;;16.48;4.72;;;;;;;8.38;100.00;99799.72;5054645;28;20035;-77
2023/03/31 04:31:37;;;;;;;19.05;5.05;;;;;;;8.39;100.00;99790.94;5056704;28;20053;-77
2023/03/31 04:34:05;;;;;;;14.20;3.95;;;;;;;8.42;100.00;99787.50;5013326;28;20049;-78
2023/03/31 04:36:33;;;;;;;16.55;5.00;;;;;;;8.42;100.00;99780.47;5052211;28;20066;-78
2023/03/31 04:39:00;;;;;;;21.52;5.13;;;;;;;8.46;100.00;99773.47;5055572;28;20032;-78
2023/03/31 04:41:27;;;;;;;15.13;4.30;;;;;;;8.47;100.00;99776.09;5057782;28;20052;-78
2023/03/31 04:43:55;;;;;;;15.85;5.28;;;;;;;8.49;100.00;99766.44;5073457;28;20049;-78
2023/03/31 04:46:22;;;;;;;11.98;4.18;;;;;;;8.51;100.00;99763.81;5045093;28;20049;-77
2023/03/31 04:48:49;;;;;;;16.35;4.93;;;;;;;8.53;100.00;99762.06;4998524;28;20537;-78
2023/03/31 04:51:19;;;;;;;20.48;5.68;;;;;;;8.56;100.00;99754.13;5047447;28;20044;-78
2023/03/31 04:53:46;;;;;;;18.05;5.38;;;;;;;8.57;100.00;99748.03;5043168;28;20049;-77
2023/03/31 04:56:13;;;;;;;19.50;5.32;;;;;;;8.59;100.00;99744.50;5052135;28;20060;-77
2023/03/31 04:58:41;;;;;;;12.00;5.15;;;;;;;8.63;100.00;99736.59;5051002;28;20423;-77
2023/03/31 05:01:09;;;;;;;19.38;5.38;;;;;;;8.64;100.00;99733.06;5050056;28;20048;-76
2023/03/31 05:03:36;;;;;;;13.80;6.18;;;;;;;8.66;100.00;99733.94;5061006;28;20060;-76
2023/03/31 05:06:04;;;;;;;20.33;6.13;;;;;;;8.66;100.00;99734.84;4974391;28;20053;-77
2023/03/31 05:08:32;;;;;;;17.38;6.05;;;;;;;8.68;100.00;99730.44;5045730;28;20055;-77
2023/03/31 05:11:02;;;;;;;14.88;6.68;;;;;;;8.69;100.00;99726.06;5022068;28;20045;-77
2023/03/31 05:13:29;;;;;;;20.25;6.53;;;;;;;8.70;100.00;99727.81;5044193;28;20063;-77
2023/03/31 05:15:56;;;;;;;20.58;7.65;;;;;;;8.71;100.00;99722.50;5047334;28;20057;-77
2023/03/31 05:18:26;;;;;;;13.43;5.57;;;;;;;8.71;100.00;99719.88;5061895;28;20057;-78
2023/03/31 05:20:54;;;;;;;13.63;5.32;;;;;;;8.73;100.00;99719.88;5023926;28;20048;-78
2023/03/31 05:23:21;;;;;;;18.90;6.72;;;;;;;8.74;100.00;99709.38;5044361;28;20036;-78
2023/03/31 05:25:48;;;;;;;16.13;5.40;;;;;;;8.76;100.00;99710.22;5021914;28;20084;-78
2023/03/31 05:28:15;;;;;;;16.85;6.22;;;;;;;8.77;100.00;99706.72;5045424;28;20056;-76
2023/03/31 05:30:43;;;;;;;19.50;6.07;;;;;;;8.78;100.00;99697.09;5047043;28;20067;-77
2023/03/31 05:33:10;;;;;;;14.75;5.95;;;;;;;8.80;100.00;99703.19;5044337;28;20041;-78
2023/03/31 05:35:37;;;;;;;17.48;5.82;;;;;;;8.80;100.00;99687.44;5021903;28;20040;-78
2023/03/31 05:38:05;;;;;;;15.00;7.43;;;;;;;8.81;100.00;99686.56;5035842;28;20044;-78
2023/03/31 05:40:35;;;;;;;12.32;5.53;;;;;;;8.83;100.00;99691.78;5034617;28;20047;-78
2023/03/31 05:43:02;;;;;;;16.70;6.25;;;;;;;8.84;100.00;99689.16;5045394;28;20044;-76
2023/03/31 05:45:29;;;;;;;14.10;5.88;;;;;;;8.84;100.00;99678.66;5065583;28;20051;-79
2023/03/31 05:47:57;;;;;;;15.43;6.55;;;;;;;8.86;100.00;99687.38;5037979;28;20055;-77
2023/03/31 05:50:24;;;;;;;14.55;6.47;;;;;;;8.86;100.00;99682.13;5037863;28;20052;-78
2023/03/31 05:52:51;;;;;;;15.80;6.22;;;;;;;8.86;100.00;99676.88;5029293;28;20048;-78
2023/03/31 05:55:19;;;;;;;12.20;5.78;;;;;;;8.88;100.00;99679.50;5064043;28;20040;-78
2023/03/31 05:57:46;;;;;;;18.45;5.70;;;;;;;8.88;100.00;99671.63;5041485;28;20052;-78
2023/03/31 06:00:14;;;;;;;14.70;6.53;;;;;;;8.88;100.00;99674.25;5038261;28;20040;-78
2023/03/31 06:02:41;;;;;;;14.73;5.85;;;;;;;8.88;100.00;99680.34;5061493;28;20060;-78
2023/03/31 06:05:09;;;;;;;18.15;6.30;;;;;;;8.89;100.00;99671.59;5056440;28;20048;-78
2023/03/31 06:07:36;;;;;;;24.38;6.95;;;;;;;8.89;100.00;99665.50;5018845;28;20063;-78
2023/03/31 06:10:07;;;;;;;19.13;6.22;;;;;;;8.88;100.00;99669.84;5060786;28;20045;-77
2023/03/31 06:12:34;;;;;;;17.65;6.18;;;;;;;8.89;100.00;99654.97;5014478;28;20045;-78
2023/03/31 06:15:02;;;;;;;16.85;6.40;;;;;;;8.89;100.00;99650.59;5048763;28;20056;-77
2023/03/31 06:17:30;;;;;;;15.95;6.47;;;;;;;8.89;100.00;99645.34;5050387;28;20052;-78
2023/03/31 06:19:57;;;;;;;18.65;6.25;;;;;;;8.90;100.00;99640.94;5059825;28;20711;-78
2023/03/31 06:22:25;;;;;;;16.63;6.55;;;;;;;8.92;100.00;99640.06;5017593;28;20036;-77
2023/03/31 06:24:52;;;;;;;14.45;5.57;;;;;;;8.92;100.00;99637.44;5003912;28;20059;-77
2023/03/31 06:27:19;;;;;;;16.45;6.70;;;;;;;8.95;100.00;99632.13;5028705;28;20052;-77
2023/03/31 06:29:49;;;;;;;15.73;6.50;;;;;;;8.96;100.00;99630.41;5035772;28;20033;-76
2023/03/31 06:32:16;;;;;;;14.82;6.28;;;;;;;8.97;100.00;99621.63;5045467;28;20068;-78
2023/03/31 06:34:43;;;;;;;11.70;6.00;;;;;;;9.01;100.00;99622.47;5058684;28;20056;-77
2023/03/31 06:37:10;;;;;;;14.95;6.50;;;;;;;9.02;100.00;99614.56;5050095;28;20502;-77
2023/03/31 06:39:38;;;;;;;12.70;5.60;;;;;;;9.03;100.00;99616.28;5023803;28;20056;-77
2023/03/31 06:42:06;;;;;;;13.65;5.20;;;;;;;9.05;100.00;99614.50;5045665;28;20049;-76
2023/03/31 06:44:39;;;;;;;16.58;5.10;;;;;;;9.06;100.00;99615.41;5014318;28;20921;-78
2023/03/31 06:47:07;;;;;;;12.65;5.43;;;;;;;9.08;100.00;99598.72;5040708;28;20056;-78
2023/03/31 06:49:36;;;;;;;12.35;5.13;;;;;;;9.10;100.00;99596.94;5056201;28;20585;-77
2023/03/31 06:52:04;;;;;;;10.30;4.28;;;;;;;9.12;100.00;99594.31;5045253;28;20044;-78
2023/03/31 06:54:31;;;;;;;9.25;4.80;;;;;;;9.13;100.00;99591.66;5027722;28;20060;-77
2023/03/31 06:56:59;;;;;;;15.75;4.65;;;;;;;9.15;100.00;99589.03;5036647;28;20364;-77
2023/03/31 06:59:26;;;;;;;12.13;4.47;;;;;;;9.16;100.00;99581.09;5039460;28;20116;-77
2023/03/31 07:01:53;;;;;;;17.25;5.45;;;;;;;9.17;100.00;99577.59;5027185;28;20087;-77
2023/03/31 07:04:21;;;;;;;11.80;5.03;;;;;;;9.18;100.00;99570.56;5045318;28;20393;-77
2023/03/31 07:06:48;;;;;;;12.77;4.80;;;;;;;9.19;100.00;99569.69;5062255;28;20059;-77
2023/03/31 07:09:17;;;;;;;14.38;5.47;;;;;;;9.20;100.00;99563.53;5052429;28;20048;-77
2023/03/31 07:11:44;;;;;;;10.65;4.93;;;;;;;9.21;100.00;99565.28;5023123;28;20071;-77
2023/03/31 07:14:11;;;;;;;11.38;5.15;;;;;;;9.23;100.00;99560.88;5054582;28;20045;-76
2023/03/31 07:16:39;;;;;;;15.15;5.30;;;;;;;9.25;100.00;99558.25;5031185;28;20044;-78
2023/03/31 07:19:09;;;;;;;15.75;5.93;;;;;;;9.27;100.00;99554.69;5055596;28;20045;-77
2023/03/31 07:21:38;;;;;;;14.43;5.72;;;;;;;9.28;100.00;99556.47;5063092;28;20798;-77
2023/03/31 07:24:05;;;;;;;10.82;5.43;;;;;;;9.31;100.00;99558.16;5035574;28;20048;-77
2023/03/31 07:26:32;;;;;;;12.23;5.43;;;;;;;9.33;100.00;99545.88;5024546;28;20048;-78
2023/03/31 07:29:00;;;;;;;9.80;4.90;;;;;;;9.36;100.00;99543.22;5057113;28;20052;-78
2023/03/31 07:31:27;;;;;;;12.68;5.05;;;;;;;9.37;100.00;99542.31;5030143;28;20061;-77
2023/03/31 07:33:54;;;;;;;14.70;5.28;;;;;;;9.40;100.00;99536.16;5045336;28;20049;-76
2023/03/31 07:36:22;;;;;;;8.25;4.90;;;;;;;9.42;100.00;99529.13;5064380;28;20041;-77
2023/03/31 07:38:49;;;;;;;10.90;4.82;;;;;;;9.41;100.00;99528.22;5047236;28;20092;-77
2023/03/31 07:41:19;;;;;;;12.45;4.97;;;;;;;9.43;100.00;99525.59;5059424;28;20376;-77
2023/03/31 07:43:48;;;;;;;9.70;4.97;;;;;;;9.45;100.00;99529.06;5023634;28;20044;-77
2023/03/31 07:46:21;;;;;;;12.02;5.38;;;;;;;9.46;100.00;99515.91;5057164;28;20064;-77
2023/03/31 07:48:49;;;;;;;9.73;4.80;;;;;;;9.48;100.00;99516.75;5064740;28;20415;-77
2023/03/31 07:51:19;;;;;;;10.52;4.70;;;;;;;9.50;100.00;99516.72;5045171;28;20048;-77
2023/03/31 07:53:51;;;;;;;10.30;4.65;;;;;;;9.49;100.00;99510.59;5059740;28;20037;-78
2023/03/31 07:56:22;;;;;;;12.48;5.20;;;;;;;9.50;100.00;99507.06;5053299;28;20055;-77
2023/03/31 07:58:51;;;;;;;;;;;;;;;9.52;100.00;99504.44;5019382;28;20387;-77
2023/03/31 08:01:24;;;;;;;8.88;4.57;;;;;;;9.53;100.00;99493.03;5035229;28;19928;-77
2023/03/31 08:03:54;;;;;;;6.97;4.57;;;;;;;9.53;100.00;99490.41;5053804;28;20045;-77
2023/03/31 08:06:23;;;;;;;8.68;5.10;;;;;;;9.54;100.00;99492.97;5061359;28;20048;-76
2023/03/31 08:08:51;;;;;;;11.65;5.40;;;;;;;9.58;100.00;99493.81;5045190;28;20063;-77
2023/03/31 08:11:20;;;;;;;9.95;4.95;;;;;;;9.60;100.00;99481.50;5053358;28;20043;-77
2023/03/31 08:13:47;;;;;;;8.38;4.78;;;;;;;9.61;100.00;99478.00;5024715;28;20048;-76
2023/03/31 08:16:15;;;;;;;9.55;5.43;;;;;;;9.62;100.00;99479.75;5023341;28;23674;-76
2023/03/31 08:18:43;;;;;;;8.55;5.00;;;;;;;9.64;100.00;99482.34;5042645;28;20057;-77
2023/03/31 08:21:10;;;;;;;9.25;4.85;;;;;;;9.61;100.00;99469.25;5056574;28;20056;-77
2023/03/31 08:23:38;;;;;;;12.65;4.93;;;;;;;9.63;100.00;99470.94;5050930;28;20049;-76
2023/03/31 08:26:11;;;;;;;12.00;5.20;;;;;;;9.64;100.00;99459.56;5061300;28;20725;-78
2023/03/31 08:28:41;;;;;;;9.60;4.32;;;;;;;9.65;100.00;99470.94;5025373;28;20560;-78
2023/03/31 08:31:09;;;;;;;12.52;4.60;;;;;;;9.65;100.00;99458.63;5023984;28;20048;-76
2023/03/31 08:33:37;;;;;;;6.93;3.97;;;;;;;9.66;100.00;99455.13;5045940;28;20044;-77
2023/03/31 08:36:09;;;;;;;8.40;4.10;;;;;;;9.65;100.00;99449.88;5043281;28;20068;-77
2023/03/31 08:38:38;;;;;;;10.07;4.30;;;;;;;9.64;100.00;99446.41;5054923;28;20053;-77
2023/03/31 08:41:06;;;;;;;7.53;4.30;;;;;;;9.65;100.00;99447.25;5055095;28;20040;-78
2023/03/31 08:43:42;;;;;;;7.85;4.97;;;;;;;9.64;100.00;99438.50;5000374;28;20056;-77
2023/03/31 08:46:12;;;;;;;8.98;4.18;;;;;;;9.64;100.00;99443.78;5051752;28;20052;-78
2023/03/31 08:48:47;;;;;;;7.82;4.05;;;;;;;9.64;100.00;99442.88;5051631;28;20060;-78
2023/03/31 08:51:21;;;;;;;6.68;4.30;;;;;;;9.63;100.00;99435.91;5060297;28;20040;-77
2023/03/31 08:53:52;;;;;;;5.80;4.10;;;;;;;9.64;100.00;99440.25;5047311;28;20135;-76
2023/03/31 08:56:21;;;;;;;9.55;4.30;;;;;;;9.64;100.00;99441.13;5062653;28;20168;-78
2023/03/31 08:58:50;;;;;;;7.47;4.47;;;;;;;9.64;100.00;99435.00;5055166;28;20049;-77
2023/03/31 09:01:39;;;;;;;12.27;5.00;;;;;;;9.64;100.00;99435.88;5023697;28;20565;-76
2023/03/31 09:04:46;;;;;;;5.47;4.53;;;;;;;9.64;100.00;99428.00;5048521;28;20044;-77
2023/03/31 09:07:22;;;;;;;8.75;4.35;;;;;;;9.65;100.00;99427.06;5051410;28;20454;-79
2023/03/31 09:10:16;;;;;;;8.57;5.05;;;;;;;9.67;100.00;99425.28;5044610;28;20064;-77
2023/03/31 09:13:00;;;;;;;7.97;4.82;;;;;;;9.68;100.00;99418.28;5053437;28;20040;-78
2023/03/31 09:15:36;;;;;;;8.98;5.07;;;;;;;9.71;100.00;99413.81;4999891;28;20148;-76
2023/03/31 09:18:14;;;;;;;8.88;4.85;;;;;;;9.75;100.00;99414.63;5040743;28;20055;-77
2023/03/31 09:20:48;;;;;;;9.98;4.50;;;;;;;9.79;100.00;99413.69;5036358;28;20058;-78
2023/03/31 09:23:49;;;;;;;10.30;4.40;;;;;;;9.84;100.00;99400.47;5040775;28;20527;-77
2023/03/31 09:26:40;;;;;;;10.68;4.75;;;;;;;9.88;100.00;99407.41;5024585;28;20063;-76
2023/03/31 09:29:19;;;;;;;9.20;4.75;;;;;;;9.88;100.00;99395.13;5069818;28;20061;-77
2023/03/31 09:31:47;;;;;;;7.38;4.07;;;;;;;9.91;100.00;99396.84;5034586;28;20052;-77
2023/03/31 09:34:28;;;;;;;8.43;4.57;;;;;;;9.92;100.00;99399.47;5001142;28;20052;-77
2023/03/31 09:36:55;;;;;;;;;;;;;;;9.93;100.00;99388.03;5056949;28;20786;-76
2023/03/31 09:39:22;;;;;;;10.68;4.53;;;;;;;9.94;100.00;99392.41;5045735;28;20707;-76
2023/03/31 09:41:52;;;;;;;8.70;4.60;;;;;;;9.95;100.00;99391.50;5064878;28;20045;-76
2023/03/31 09:44:50;;;;;;;11.33;5.10;;;;;;;9.98;100.00;99382.69;5041536;28;20418;-77
2023/03/31 09:47:52;;;;;;;8.43;4.57;;;;;;;10.02;100.00;99375.59;5036719;28;20299;-77
2023/03/31 09:50:21;;;;;;;9.30;4.43;;;;;;;10.03;100.00;99380.84;5000574;28;20056;-76
2023/03/31 09:52:57;;;;;;;11.48;4.88;;;;;;;10.04;100.00;99387.84;5028962;28;20049;-76
2023/03/31 09:55:32;;;;;;;7.05;4.38;;;;;;;10.07;100.00;99386.91;5042330;28;20068;-76
2023/03/31 09:58:07;;;;;;;;;;;;;;;10.08;100.00;99375.50;5048626;28;20048;-76
2023/03/31 10:00:35;;;;;;;7.47;4.53;;;;;;;10.11;100.00;99375.44;5062218;28;19920;-77
2023/03/31 10:03:06;;;;;;;6.88;4.40;;;;;;;10.12;100.00;99372.78;5018823;28;20056;-77
2023/03/31 10:05:51;;;;;;;12.07;4.60;;;;;;;10.13;100.00;99377.16;5043695;28;20052;-77
2023/03/31 10:08:23;;;;;;;8.85;4.30;;;;;;;10.14;100.00;99368.34;5051573;28;20057;-76
2023/03/31 10:10:53;;;;;;;9.60;3.88;;;;;;;10.17;100.00;99369.19;5049103;28;20064;-76
2023/03/31 10:13:34;;;;;;;11.00;4.40;;;;;;;10.19;100.00;99364.75;5052037;28;20048;-77
2023/03/31 10:16:11;;;;;;;7.20;3.80;;;;;;;10.22;100.00;99369.97;5036144;28;20056;-76
2023/03/31 10:18:41;;;;;;;12.13;4.40;;;;;;;10.26;100.00;99369.00;5027361;28;20051;-76
2023/03/31 10:21:35;;;;;;;10.60;4.07;;;;;;;10.31;100.00;99365.44;5041549;28;20415;-76
2023/03/31 10:24:07;;;;;;;10.15;5.60;;;;;;;10.35;100.00;99360.97;5078086;28;20051;-77
2023/03/31 10:26:36;;;;;;;12.55;5.30;;;;;;;10.41;100.00;99365.25;5029889;28;20049;-77
2023/03/31 10:29:20;;;;;;;14.55;4.93;;;;;;;10.42;100.00;99365.22;5064720;28;20040;-76
2023/03/31 10:31:48;;;;;;;9.00;3.88;;;;;;;10.45;100.00;99367.81;5008921;28;20053;-76
2023/03/31 10:34:16;;;;;;;10.95;4.20;;;;;;;10.48;100.00;99362.47;5015524;28;20056;-76
2023/03/31 10:36:53;;;;;;;12.48;4.95;;;;;;;10.52;100.00;99364.13;5025529;28;20044;-76
2023/03/31 10:39:29;;;;;;;10.90;4.38;;;;;;;10.58;100.00;99355.22;5055767;28;20048;-76
2023/03/31 10:41:58;;;;;;;9.82;3.95;;;;;;;10.62;100.00;99362.16;5052303;28;20092;-76
2023/03/31 10:44:33;;;;;;;10.35;4.28;;;;;;;10.68;100.00;99358.53;5048583;28;20055;-76
2023/03/31 10:47:32;;;;;;;11.38;4.18;;;;;;;10.72;100.00;99360.22;5023427;28;20499;-76
2023/03/31 10:50:03;;;;;;;9.73;3.88;;;;;;;10.76;100.00;99350.50;5061023;28;20053;-76
2023/03/31 10:52:43;;;;;;;11.38;4.50;;;;;;;10.81;100.00;99353.88;5039655;28;20411;-77
2023/03/31 10:55:13;;;;;;;8.73;4.47;;;;;;;10.89;100.00;99351.97;5035549;28;20037;-77
2023/03/31 10:57:50;;;;;;;10.52;3.97;;;;;;;10.93;100.00;99353.63;5048540;28;20454;-77
2023/03/31 11:00:33;;;;;;;8.85;3.97;;;;;;;10.96;100.00;99350.03;5063247;28;20065;-77
2023/03/31 11:03:01;;;;;;;8.77;3.15;;;;;;;11.00;100.00;99343.78;5025423;28;20495;-75
2023/03/31 11:05:28;;;;;;;9.10;3.88;;;;;;;11.05;100.00;99341.94;5050174;28;20067;-77
2023/03/31 11:08:17;;;;;;;7.07;3.25;;;;;;;11.10;100.00;99342.72;5039293;28;20414;-76
2023/03/31 11:11:05;;;;;;;5.13;3.25;;;;;;;11.14;100.00;99346.13;5056943;28;20036;-77
2023/03/31 11:13:51;;;;;;;5.00;2.50;;;;;;;11.13;100.00;99350.53;5053760;28;20040;-77
2023/03/31 11:16:32;;;;;;;6.07;2.95;;;;;;;11.08;100.00;99352.41;5052030;28;20049;-77
2023/03/31 11:19:25;;;;;;;3.30;1.90;;;;;;;10.99;100.00;99344.72;5022304;28;20496;-77
2023/03/31 11:22:09;;;;;;;2.28;1.60;;;;;;;10.90;100.00;99348.41;5048924;28;20048;-77
2023/03/31 11:25:19;;;;;;;5.90;2.15;;;;;;;10.80;100.00;99347.75;5053332;28;20051;-77
2023/03/31 11:28:08;;;;;;;3.63;2.28;;;;;;;10.77;100.00;99333.78;5045850;28;20060;-77
2023/03/31 11:30:47;;;;;;;6.00;2.72;;;;;;;10.76;100.00;99337.31;5050345;28;20044;-77
2023/03/31 11:33:49;;;;;;;8.02;3.08;;;;;;;10.77;100.00;99337.25;5060079;28;20044;-78
2023/03/31 11:36:37;;;;;;;6.03;2.88;;;;;;;10.80;100.00;99331.09;5053948;28;20341;-77
2023/03/31 11:39:29;;;;;;;7.20;2.58;;;;;;;10.84;100.00;99330.09;5045757;28;20957;-78
2023/03/31 11:42:11;;;;;;;6.55;2.67;;;;;;;10.90;100.00;99324.69;5046162;28;20052;-80
2023/03/31 11:44:45;;;;;;;2.88;2.63;;;;;;;10.96;100.00;99326.31;5038011;28;20411;-77
2023/03/31 11:47:19;;;;;;;5.05;2.50;;;;;;;10.99;100.00;99319.22;5044908;28;20527;-77
2023/03/31 11:49:54;;;;;;;5.32;2.42;;;;;;;11.08;100.00;99321.66;5026177;28;20426;-76
2023/03/31 11:52:40;;;;;;;5.50;2.63;;;;;;;11.20;100.00;99323.13;5053982;28;20537;-78
2023/03/31 11:55:15;;;;;;;8.43;3.38;;;;;;;11.30;100.00;99322.00;5061244;28;20386;-77